createdAt,value
2023-02-19T00:01:15.933Z,18.08
2023-02-19T00:03:43.670Z,17.10
2023-02-19T00:06:11.893Z,17.15
2023-02-19T00:08:39.791Z,16.88
2023-02-19T00:11:08.410Z,17.58
2023-02-19T00:13:39.127Z,16.63
2023-02-19T00:16:15.303Z,15.25
2023-02-19T00:18:45.262Z,14.05
2023-02-19T00:21:12.846Z,13.15
2023-02-19T00:23:40.427Z,12.82
2023-02-19T00:26:18.328Z,12.20
2023-02-19T00:28:46.905Z,11.52
2023-02-19T00:31:17.317Z,11.27
2023-02-19T00:33:45.197Z,9.70
2023-02-19T00:36:12.858Z,10.35
2023-02-19T00:38:40.893Z,10.68
2023-02-19T00:41:20.354Z,11.38
2023-02-19T00:44:01.472Z,11.40
2023-02-19T00:46:28.640Z,11.50
2023-02-19T00:48:56.603Z,12.07
2023-02-19T00:51:25.192Z,12.57
2023-02-19T00:53:52.880Z,12.88
2023-02-19T00:56:20.462Z,14.85
2023-02-19T00:58:47.740Z,14.00
2023-02-19T01:01:15.244Z,15.15
2023-02-19T01:03:42.408Z,15.65
2023-02-19T01:06:11.059Z,17.15
2023-02-19T01:08:38.781Z,17.10
2023-02-19T01:11:06.353Z,18.15
2023-02-19T01:13:34.323Z,18.25
2023-02-19T01:16:06.317Z,16.98
2023-02-19T01:18:33.793Z,19.15
2023-02-19T01:21:01.239Z,18.42
2023-02-19T01:23:28.334Z,20.25
2023-02-19T01:25:55.477Z,19.85
2023-02-19T01:28:23.191Z,18.58
2023-02-19T01:30:50.285Z,18.65
2023-02-19T01:33:17.391Z,18.35
2023-02-19T01:35:44.492Z,17.70
2023-02-19T01:38:11.619Z,17.88
2023-02-19T01:40:38.868Z,17.25
2023-02-19T01:43:06.900Z,17.30
2023-02-19T01:45:36.820Z,15.88
2023-02-19T01:48:06.764Z,17.00
2023-02-19T01:50:36.500Z,14.93
2023-02-19T01:53:05.652Z,15.35
2023-02-19T01:55:34.122Z,15.38
2023-02-19T01:58:02.510Z,12.98
2023-02-19T02:00:29.689Z,12.75
2023-02-19T02:02:58.022Z,13.02
2023-02-19T02:05:25.163Z,13.43
2023-02-19T02:08:11.351Z,11.23
2023-02-19T02:10:38.509Z,11.18
2023-02-19T02:13:05.644Z,9.90
2023-02-19T02:15:37.712Z,11.25
2023-02-19T02:18:15.482Z,10.13
2023-02-19T02:20:57.601Z,9.43
2023-02-19T02:25:56.524Z,9.48
2023-02-19T02:28:36.973Z,9.15
2023-02-19T02:31:10.797Z,8.55
2023-02-19T02:33:48.615Z,9.30
2023-02-19T02:36:19.020Z,9.80
2023-02-19T02:38:49.510Z,9.75
2023-02-19T02:41:21.423Z,11.43
2023-02-19T02:43:48.551Z,10.75
2023-02-19T02:46:19.784Z,9.40
2023-02-19T02:48:53.782Z,9.32
2023-02-19T02:51:28.007Z,9.15
2023-02-19T02:54:29.764Z,8.85
2023-02-19T02:57:00.203Z,9.02
2023-02-19T02:59:35.680Z,8.25
2023-02-19T03:02:11.435Z,8.43
2023-02-19T03:05:03.341Z,9.07
2023-02-19T03:07:34.512Z,9.27
2023-02-19T03:10:03.400Z,7.75
2023-02-19T03:12:50.533Z,8.35
2023-02-19T03:15:36.785Z,7.80
2023-02-19T03:18:26.976Z,7.65
2023-02-19T03:20:57.466Z,7.85
2023-02-19T03:23:46.248Z,8.63
2023-02-19T03:26:13.503Z,8.32
2023-02-19T03:29:06.917Z,8.70
2023-02-19T03:31:35.972Z,7.85
2023-02-19T03:34:07.827Z,8.07
2023-02-19T03:36:38.665Z,7.13
2023-02-19T03:39:08.630Z,6.70
2023-02-19T03:41:44.150Z,6.35
2023-02-19T03:44:31.190Z,6.25
2023-02-19T03:47:03.631Z,7.18
2023-02-19T03:49:49.243Z,7.18
2023-02-19T03:52:40.643Z,6.35
2023-02-19T03:55:17.540Z,6.57
2023-02-19T03:57:56.998Z,6.35
2023-02-19T04:00:27.973Z,7.13
2023-02-19T04:03:04.574Z,7.15
2023-02-19T04:05:33.028Z,7.30
2023-02-19T04:08:08.899Z,7.13
2023-02-19T04:10:42.485Z,7.60
2023-02-19T04:13:16.454Z,8.02
2023-02-19T04:15:45.259Z,7.60
2023-02-19T04:18:15.363Z,6.72
2023-02-19T04:20:46.086Z,7.22
2023-02-19T04:23:14.091Z,6.32
2023-02-19T04:25:45.064Z,8.30
2023-02-19T04:28:16.449Z,6.70
2023-02-19T04:30:44.128Z,7.38
2023-02-19T04:33:11.455Z,6.55
2023-02-19T04:35:38.739Z,7.93
2023-02-19T04:38:05.899Z,7.97
2023-02-19T04:40:33.000Z,8.35
2023-02-19T04:43:00.136Z,6.95
2023-02-19T04:45:27.203Z,7.68
2023-02-19T04:47:54.401Z,8.07
2023-02-19T04:50:22.820Z,8.23
2023-02-19T04:52:49.984Z,8.70
2023-02-19T04:55:17.252Z,9.25
2023-02-19T04:57:44.399Z,9.55
2023-02-19T05:00:11.860Z,12.00
2023-02-19T05:02:39.173Z,9.38
2023-02-19T05:05:06.351Z,9.75
2023-02-19T05:07:33.858Z,11.65
2023-02-19T05:10:00.933Z,10.82
2023-02-19T05:12:28.082Z,10.35
2023-02-19T05:14:55.218Z,8.75
2023-02-19T05:17:22.320Z,4.28
2023-02-19T05:19:49.388Z,3.22
2023-02-19T05:22:16.523Z,3.25
2023-02-19T05:24:43.673Z,2.38
2023-02-19T05:27:10.818Z,2.40
2023-02-19T05:29:37.949Z,2.58
2023-02-19T05:32:05.117Z,2.25
2023-02-19T05:34:32.294Z,2.78
2023-02-19T05:36:59.421Z,2.53
2023-02-19T05:39:26.595Z,2.47
2023-02-19T05:41:53.688Z,2.88
2023-02-19T05:44:20.746Z,3.13
2023-02-19T05:46:47.813Z,3.22
2023-02-19T05:49:14.943Z,3.30
2023-02-19T05:51:42.083Z,3.00
2023-02-19T05:54:10.097Z,1.63
2023-02-19T05:56:41.550Z,1.33
2023-02-19T05:59:14.937Z,1.48
2023-02-19T06:01:42.268Z,1.30
2023-02-19T06:04:09.826Z,1.60
2023-02-19T06:06:37.310Z,1.83
2023-02-19T06:09:05.014Z,1.25
2023-02-19T06:11:32.122Z,1.95
2023-02-19T06:13:59.289Z,1.65
2023-02-19T06:16:26.943Z,1.40
2023-02-19T06:18:54.086Z,1.73
2023-02-19T06:21:21.403Z,1.63
2023-02-19T06:23:48.553Z,1.50
2023-02-19T06:26:20.490Z,2.13
2023-02-19T06:28:49.098Z,1.77
2023-02-19T06:31:17.028Z,1.85
2023-02-19T06:33:45.473Z,1.45
2023-02-19T06:36:13.814Z,2.25
2023-02-19T06:38:41.001Z,2.40
2023-02-19T06:41:08.901Z,2.28
2023-02-19T06:43:36.367Z,2.05
2023-02-19T06:46:04.557Z,1.98
2023-02-19T06:48:32.210Z,2.30
2023-02-19T06:50:59.398Z,2.72
2023-02-19T06:53:29.355Z,2.72
2023-02-19T06:55:59.407Z,3.22
2023-02-19T06:58:27.402Z,2.90
2023-02-19T07:00:54.814Z,4.05
2023-02-19T07:03:22.200Z,3.15
2023-02-19T07:05:49.467Z,3.47
2023-02-19T07:08:19.636Z,3.05
2023-02-19T07:10:46.840Z,3.65
2023-02-19T07:13:16.880Z,3.83
2023-02-19T07:15:43.964Z,4.00
2023-02-19T07:18:11.084Z,3.90
2023-02-19T07:20:40.605Z,3.83
2023-02-19T07:23:07.752Z,2.95
2023-02-19T07:25:34.912Z,2.80
2023-02-19T07:28:01.973Z,3.50
2023-02-19T07:30:29.188Z,2.22
2023-02-19T07:32:56.362Z,2.40
2023-02-19T07:35:23.522Z,2.15
2023-02-19T07:37:50.678Z,2.78
2023-02-19T07:40:17.801Z,3.35
2023-02-19T07:42:47.459Z,3.65
2023-02-19T07:45:17.178Z,3.75
2023-02-19T07:47:46.768Z,3.72
2023-02-19T07:50:14.134Z,3.17
2023-02-19T07:52:41.323Z,3.97
2023-02-19T07:55:08.521Z,3.80
2023-02-19T07:57:35.646Z,3.72
2023-02-19T08:00:03.171Z,3.78
2023-02-19T08:02:58.704Z,3.38
2023-02-19T08:05:26.019Z,3.15
2023-02-19T08:07:53.104Z,3.78
2023-02-19T08:10:38.978Z,4.10
2023-02-19T08:13:25.234Z,3.85
2023-02-19T08:15:52.378Z,4.20
2023-02-19T08:18:20.701Z,4.15
2023-02-19T08:20:49.693Z,3.83
2023-02-19T08:23:17.128Z,4.18
2023-02-19T08:25:47.142Z,3.85
2023-02-19T08:28:14.436Z,3.38
2023-02-19T08:30:44.440Z,3.42
2023-02-19T08:33:15.304Z,4.18
2023-02-19T08:35:43.049Z,3.78
2023-02-19T08:38:11.294Z,3.83
2023-02-19T08:40:39.107Z,3.60
2023-02-19T08:43:14.109Z,3.60
2023-02-19T08:45:42.431Z,3.28
2023-02-19T08:48:09.833Z,3.08
2023-02-19T08:50:37.144Z,4.35
2023-02-19T08:53:07.309Z,3.53
2023-02-19T08:55:34.420Z,3.22
2023-02-19T08:58:01.836Z,3.10
2023-02-19T09:00:29.157Z,3.58
2023-02-19T09:02:58.173Z,3.60
2023-02-19T09:05:25.287Z,2.95
2023-02-19T09:07:52.649Z,3.00
2023-02-19T09:10:19.760Z,2.80
2023-02-19T09:12:46.905Z,3.45
2023-02-19T09:15:14.306Z,3.50
2023-02-19T09:17:41.460Z,3.55
2023-02-19T09:20:11.841Z,2.90
2023-02-19T09:22:38.933Z,3.05
2023-02-19T09:25:06.186Z,2.40
2023-02-19T09:27:33.606Z,2.60
2023-02-19T09:30:00.847Z,2.85
2023-02-19T09:32:30.580Z,3.20
2023-02-19T09:34:57.942Z,2.90
2023-02-19T09:37:28.788Z,2.80
2023-02-19T09:39:56.152Z,2.60
2023-02-19T09:42:25.185Z,2.67
2023-02-19T09:44:54.495Z,2.45
2023-02-19T09:47:23.280Z,2.60
2023-02-19T09:49:52.994Z,2.33
2023-02-19T09:52:25.220Z,2.33
2023-02-19T09:54:57.578Z,2.38
2023-02-19T09:57:25.855Z,2.38
2023-02-19T09:59:56.065Z,3.13
2023-02-19T10:02:25.488Z,2.60
2023-02-19T10:04:53.212Z,2.42
2023-02-19T10:07:27.317Z,3.03
2023-02-19T10:10:27.499Z,2.60
2023-02-19T10:12:56.875Z,2.85
2023-02-19T10:15:36.830Z,2.60
2023-02-19T10:18:13.171Z,2.35
2023-02-19T10:20:43.688Z,2.35
2023-02-19T10:23:11.971Z,2.50
2023-02-19T10:25:42.459Z,2.40
2023-02-19T10:28:22.221Z,2.10
2023-02-19T10:30:53.679Z,2.60
2023-02-19T10:33:21.279Z,1.95
2023-02-19T10:35:56.451Z,2.33
2023-02-19T10:38:28.459Z,2.38
2023-02-19T10:41:03.463Z,2.50
2023-02-19T10:43:36.456Z,2.25
2023-02-19T10:46:06.002Z,2.35
2023-02-19T10:48:42.741Z,2.28
2023-02-19T10:51:13.855Z,2.47
2023-02-19T10:53:46.342Z,2.47
2023-02-19T10:56:25.297Z,2.58
2023-02-19T10:58:52.686Z,2.58
2023-02-19T11:01:23.777Z,2.20
2023-02-19T11:03:52.133Z,2.63
2023-02-19T11:06:21.800Z,2.50
2023-02-19T11:08:59.454Z,2.58
2023-02-19T11:11:37.038Z,5.03
2023-02-19T11:14:16.043Z,3.85
2023-02-19T11:16:54.890Z,2.10
2023-02-19T11:19:23.813Z,2.47
2023-02-19T11:21:51.577Z,3.17
2023-02-19T11:24:57.825Z,2.97
2023-02-19T11:27:32.573Z,2.72
2023-02-19T11:30:18.526Z,2.45
2023-02-19T11:32:45.716Z,3.05
2023-02-19T11:35:17.558Z,3.53
2023-02-19T11:38:02.906Z,3.78
2023-02-19T11:40:38.698Z,3.50
2023-02-19T11:43:20.834Z,3.58
2023-02-19T11:46:05.044Z,3.17
2023-02-19T11:48:36.148Z,3.15
2023-02-19T11:51:30.195Z,3.58
2023-02-19T11:54:15.848Z,13.45
2023-02-19T11:56:44.626Z,8.63
2023-02-19T11:59:32.044Z,3.03
2023-02-19T12:02:19.912Z,2.42
2023-02-19T12:04:51.763Z,2.70
2023-02-19T12:07:39.064Z,2.38
2023-02-19T12:10:13.092Z,2.20
2023-02-19T12:12:55.189Z,2.25
2023-02-19T12:15:31.346Z,1.98
2023-02-19T12:17:58.453Z,1.85
2023-02-19T12:20:58.239Z,2.30
2023-02-19T12:23:29.835Z,2.38
2023-02-19T12:26:04.691Z,2.00
2023-02-19T12:28:50.252Z,2.58
2023-02-19T12:31:36.619Z,2.50
2023-02-19T12:34:18.280Z,2.63
2023-02-19T12:37:00.281Z,2.10
2023-02-19T12:39:48.607Z,2.00
2023-02-19T12:42:34.365Z,1.45
2023-02-19T12:45:04.005Z,1.50
2023-02-19T12:47:37.180Z,1.20
2023-02-19T12:50:08.725Z,1.50
2023-02-19T12:52:40.354Z,1.60
2023-02-19T12:55:25.307Z,1.67
2023-02-19T12:57:53.664Z,1.67
2023-02-19T13:00:41.723Z,1.85
2023-02-19T13:03:27.386Z,1.77
2023-02-19T13:06:18.452Z,2.08
2023-02-19T13:09:06.006Z,2.03
2023-02-19T13:11:52.697Z,1.50
2023-02-19T13:14:27.752Z,1.67
2023-02-19T13:17:19.986Z,1.50
2023-02-19T13:19:49.260Z,1.60
2023-02-19T13:22:38.543Z,1.85
2023-02-19T13:25:06.688Z,1.63
2023-02-19T13:27:50.530Z,1.38
2023-02-19T13:30:30.171Z,2.60
2023-02-19T13:33:18.957Z,2.78
2023-02-19T13:36:06.182Z,1.40
2023-02-19T13:38:34.558Z,1.17
2023-02-19T13:41:01.712Z,1.20
2023-02-19T13:43:30.873Z,0.90
2023-02-19T13:45:59.792Z,1.00
2023-02-19T13:48:31.267Z,0.90
2023-02-19T13:51:13.830Z,0.77
2023-02-19T13:53:47.940Z,0.90
2023-02-19T13:56:33.967Z,1.40
2023-02-19T13:59:20.018Z,1.20
2023-02-19T14:01:52.994Z,1.15
2023-02-19T14:04:38.748Z,1.02
2023-02-19T14:07:05.900Z,1.13
2023-02-19T14:09:39.887Z,0.90
2023-02-19T14:12:25.477Z,0.80
2023-02-19T14:14:56.456Z,1.45
2023-02-19T14:17:29.613Z,4.03
2023-02-19T14:19:58.894Z,23.13
2023-02-19T14:22:44.563Z,2.88
2023-02-19T14:25:30.510Z,3.50
2023-02-19T14:28:02.485Z,2.03
2023-02-19T14:30:30.516Z,1.25
2023-02-19T14:33:09.793Z,0.90
2023-02-19T14:35:47.844Z,0.70
2023-02-19T14:38:26.409Z,1.00
2023-02-19T14:40:55.361Z,0.93
2023-02-19T14:43:24.100Z,0.90
2023-02-19T14:45:57.242Z,1.05
2023-02-19T14:48:30.777Z,0.82
2023-02-19T14:50:59.626Z,0.90
2023-02-19T14:53:29.032Z,0.90
2023-02-19T14:55:56.889Z,0.70
2023-02-19T14:58:29.700Z,1.15
2023-02-19T15:00:57.050Z,0.90
2023-02-19T15:03:37.740Z,0.85
2023-02-19T15:06:09.422Z,0.75
2023-02-19T15:08:42.919Z,1.13
2023-02-19T15:11:16.068Z,1.00
2023-02-19T15:13:45.732Z,1.02
2023-02-19T15:16:20.638Z,1.10
2023-02-19T15:18:47.798Z,1.25
2023-02-19T15:21:29.251Z,1.10
2023-02-19T15:23:57.708Z,1.38
2023-02-19T15:26:36.373Z,0.82
2023-02-19T15:29:23.483Z,1.10
2023-02-19T15:31:58.316Z,1.15
2023-02-19T15:34:26.635Z,0.98
2023-02-19T15:36:56.958Z,1.33
2023-02-19T15:39:34.845Z,1.20
2023-02-19T15:42:03.619Z,1.15
2023-02-19T15:44:34.424Z,1.42
2023-02-19T15:47:12.584Z,1.55
2023-02-19T15:49:47.052Z,1.02
2023-02-19T15:52:19.717Z,1.27
2023-02-19T15:54:53.994Z,1.40
2023-02-19T15:57:24.094Z,1.50
2023-02-19T15:59:55.492Z,1.40
2023-02-19T16:02:22.750Z,1.27
2023-02-19T16:04:49.985Z,1.50
2023-02-19T16:07:27.748Z,1.40
2023-02-19T16:10:18.582Z,1.60
2023-02-19T16:12:55.068Z,1.73
2023-02-19T16:15:22.408Z,1.70
2023-02-19T16:17:51.659Z,1.52
2023-02-19T16:20:26.305Z,1.40
2023-02-19T16:22:57.499Z,1.40
2023-02-19T16:25:26.573Z,1.50
2023-02-19T16:27:53.969Z,1.80
2023-02-19T16:30:33.656Z,1.92
2023-02-19T16:33:20.001Z,1.70
2023-02-19T16:35:48.166Z,2.05
2023-02-19T16:38:16.739Z,1.52
2023-02-19T16:40:43.827Z,1.70
2023-02-19T16:43:14.046Z,1.85
2023-02-19T16:45:49.886Z,1.85
2023-02-19T16:48:17.120Z,1.70
2023-02-19T16:50:46.191Z,2.45
2023-02-19T16:53:19.170Z,2.70
2023-02-19T16:55:46.250Z,1.98
2023-02-19T16:58:13.466Z,2.03
2023-02-19T17:00:40.781Z,1.92
2023-02-19T17:03:09.915Z,2.40
2023-02-19T17:05:37.459Z,1.98
2023-02-19T17:08:22.980Z,2.20
2023-02-19T17:10:50.148Z,2.25
2023-02-19T17:13:17.347Z,1.95
2023-02-19T17:15:44.482Z,1.92
2023-02-19T17:18:12.769Z,2.17
2023-02-19T17:20:41.229Z,1.90
2023-02-19T17:23:08.396Z,1.55
2023-02-19T17:25:35.631Z,1.70
2023-02-19T17:28:02.877Z,1.92
2023-02-19T17:30:31.734Z,2.10
2023-02-19T17:32:58.922Z,1.65
2023-02-19T17:35:26.164Z,1.65
2023-02-19T17:37:53.584Z,1.60
2023-02-19T17:40:32.274Z,1.50
2023-02-19T17:43:00.269Z,1.48
2023-02-19T17:45:27.681Z,1.50
2023-02-19T17:47:54.841Z,1.65
2023-02-19T17:50:23.082Z,2.03
2023-02-19T17:52:50.209Z,2.13
2023-02-19T17:55:18.345Z,2.13
2023-02-19T17:57:46.169Z,2.65
2023-02-19T18:00:17.065Z,2.78
2023-02-19T18:02:44.158Z,2.55
2023-02-19T18:05:11.541Z,1.75
2023-02-19T18:07:38.760Z,2.22
2023-02-19T18:10:06.575Z,1.77
2023-02-19T18:12:33.713Z,2.47
2023-02-19T18:15:00.899Z,1.70
2023-02-19T18:17:28.017Z,1.92
2023-02-19T18:19:55.184Z,2.15
2023-02-19T18:22:22.404Z,1.85
2023-02-19T18:24:50.452Z,2.00
2023-02-19T18:27:18.768Z,1.73
2023-02-19T18:29:49.283Z,1.92
2023-02-19T18:32:16.396Z,2.20
2023-02-19T18:34:43.595Z,2.25
2023-02-19T18:37:10.842Z,2.13
2023-02-19T18:39:37.946Z,2.15
2023-02-19T18:42:05.320Z,2.00
2023-02-19T18:44:32.552Z,2.00
2023-02-19T18:46:59.908Z,2.25
2023-02-19T18:49:29.550Z,2.00
2023-02-19T18:51:59.075Z,1.95
2023-02-19T18:54:26.501Z,2.13
2023-02-19T18:56:53.684Z,2.22
2023-02-19T18:59:22.046Z,1.80
2023-02-19T19:01:49.778Z,2.17
2023-02-19T19:04:17.155Z,1.95
2023-02-19T19:06:44.384Z,2.25
2023-02-19T19:09:11.548Z,2.08
2023-02-19T19:11:38.831Z,1.92
2023-02-19T19:14:06.090Z,1.90
2023-02-19T19:16:33.255Z,2.30
2023-02-19T19:19:00.371Z,2.35
2023-02-19T19:21:27.441Z,2.17
2023-02-19T19:23:55.264Z,2.00
2023-02-19T19:26:22.530Z,2.22
2023-02-19T19:28:49.593Z,1.92
2023-02-19T19:31:18.260Z,2.60
2023-02-19T19:33:47.770Z,2.80
2023-02-19T19:36:15.659Z,2.03
2023-02-19T19:38:42.756Z,1.70
2023-02-19T19:41:11.285Z,1.95
2023-02-19T19:43:38.645Z,2.10
2023-02-19T19:46:05.926Z,2.80
2023-02-19T19:48:33.182Z,2.35
2023-02-19T19:51:00.352Z,2.45
2023-02-19T19:53:27.540Z,1.40
2023-02-19T19:55:57.261Z,2.28
2023-02-19T19:58:24.832Z,1.52
2023-02-19T20:00:52.579Z,1.55
2023-02-19T20:03:20.563Z,1.70
2023-02-19T20:05:57.606Z,1.92
2023-02-19T20:08:28.393Z,2.05
2023-02-19T20:10:55.620Z,1.83
2023-02-19T20:13:31.496Z,2.00
2023-02-19T20:16:00.969Z,1.67
2023-02-19T20:18:28.225Z,1.50
2023-02-19T20:20:55.439Z,1.75
2023-02-19T20:23:27.527Z,1.50
2023-02-19T20:25:57.154Z,1.80
2023-02-19T20:28:24.344Z,2.05
2023-02-19T20:30:52.060Z,2.22
2023-02-19T20:33:19.346Z,1.80
2023-02-19T20:35:58.818Z,1.73
2023-02-19T20:38:26.096Z,2.05
2023-02-19T20:40:56.447Z,1.50
2023-02-19T20:43:23.583Z,1.77
2023-02-19T20:45:53.498Z,1.70
2023-02-19T20:48:20.615Z,1.98
2023-02-19T20:50:47.736Z,1.60
2023-02-19T20:53:14.816Z,2.20
2023-02-19T20:55:41.892Z,1.83
2023-02-19T20:58:08.982Z,2.00
2023-02-19T21:00:36.128Z,2.00
2023-02-19T21:03:03.678Z,1.73
2023-02-19T21:05:30.870Z,1.90
2023-02-19T21:07:57.969Z,1.65
2023-02-19T21:10:25.970Z,1.92
2023-02-19T21:12:54.317Z,2.20
2023-02-19T21:15:21.459Z,2.13
2023-02-19T21:17:48.656Z,2.28
2023-02-19T21:20:19.974Z,2.05
2023-02-19T21:22:47.056Z,3.20
2023-02-19T21:25:14.191Z,2.70
2023-02-19T21:27:41.396Z,2.67
2023-02-19T21:30:09.170Z,2.75
2023-02-19T21:32:36.328Z,2.80
2023-02-19T21:35:03.481Z,2.67
2023-02-19T21:37:30.624Z,2.40
2023-02-19T21:40:00.490Z,2.63
2023-02-19T21:42:27.841Z,2.30
2023-02-19T21:44:54.930Z,2.28
2023-02-19T21:47:22.073Z,2.53
2023-02-19T21:49:49.128Z,2.00
2023-02-19T21:52:16.280Z,2.40
2023-02-19T21:54:47.817Z,2.58
2023-02-19T21:57:14.907Z,2.63
2023-02-19T21:59:42.100Z,2.60
2023-02-19T22:02:09.822Z,2.63
2023-02-19T22:04:36.970Z,3.10
2023-02-19T22:07:04.032Z,2.95
2023-02-19T22:09:31.179Z,2.67
2023-02-19T22:11:58.312Z,3.35
2023-02-19T22:14:25.454Z,4.78
2023-02-19T22:16:52.605Z,3.97
2023-02-19T22:19:19.933Z,3.15
2023-02-19T22:21:47.096Z,3.22
2023-02-19T22:24:15.492Z,3.30
2023-02-19T22:26:43.509Z,3.10
2023-02-19T22:29:11.409Z,3.58
2023-02-19T22:31:38.620Z,3.20
2023-02-19T22:34:05.792Z,3.53
2023-02-19T22:36:33.797Z,3.72
2023-02-19T22:39:01.358Z,3.50
2023-02-19T22:41:28.626Z,3.30
2023-02-19T22:43:56.328Z,3.72
2023-02-19T22:46:25.020Z,4.05
2023-02-19T22:48:55.173Z,3.78
2023-02-19T22:51:23.073Z,3.80
2023-02-19T22:53:51.434Z,4.00
2023-02-19T22:56:19.341Z,4.10
2023-02-19T22:58:46.795Z,3.83
2023-02-19T23:01:14.813Z,3.88
2023-02-19T23:03:45.950Z,3.80
2023-02-19T23:06:13.535Z,4.45
2023-02-19T23:08:42.239Z,3.65
2023-02-19T23:11:09.850Z,3.67
2023-02-19T23:13:36.986Z,3.42
2023-02-19T23:16:04.662Z,3.65
2023-02-19T23:18:31.827Z,3.83
2023-02-19T23:20:59.024Z,3.72
2023-02-19T23:23:26.237Z,3.95
2023-02-19T23:25:55.640Z,3.80
2023-02-19T23:28:22.779Z,3.95
2023-02-19T23:30:49.976Z,4.82
2023-02-19T23:33:17.119Z,5.10
2023-02-19T23:35:44.220Z,4.97
2023-02-19T23:38:11.374Z,5.53
2023-02-19T23:40:38.505Z,5.57
2023-02-19T23:43:05.640Z,6.22
2023-02-19T23:45:32.751Z,6.32
2023-02-19T23:47:59.982Z,6.35
2023-02-19T23:50:27.194Z,6.35
2023-02-19T23:52:56.416Z,6.90
2023-02-19T23:55:23.691Z,7.20
2023-02-19T23:57:52.632Z,6.18
